ADDS METAR Data INFO
IDs: Format: Raw Decoded Include TAF

Data at: 0315 UTC 20 Jul 2018

KCAD 200255Z AUTO 15006KT 10SM CLR 21/12 A2993 RMK AO2 T02160128
KCAD 200235Z AUTO 14007KT 10SM CLR 21/12 A2993 RMK AO2 T02170128
KCAD 200215Z AUTO 13006KT 10SM CLR 21/12 A2993 RMK AO2 T02140129
KCAD 200155Z AUTO 13007KT 10SM CLR 22/12 A2993 RMK AO2 T02200127
KCAD 200135Z AUTO 13005KT 10SM CLR 22/12 A2993 RMK AO2 T02250125
KCAD 200116Z AUTO 14006KT 10SM SCT065 23/12 A2993 RMK AO2 T02330125
KCAD 200055Z AUTO 14006KT 10SM SCT065 24/12 A2993 RMK AO2 T02450123
KCAD 200035Z AUTO 15008KT 10SM CLR 25/12 A2993 RMK AO2 T02500120
KCAD 200016Z AUTO 16008KT 10SM CLR 25/11 A2993 RMK AO2 T02550118
KCAD 192355Z AUTO 15007KT 10SM CLR 26/11 A2994 RMK AO2 T02600117
KCAD 192335Z AUTO 17008KT 10SM CLR 26/11 A2994 RMK AO2 T02650118
KCAD 192315Z AUTO 16009KT 10SM SCT070 26/12 A2995 RMK AO2 T02630120
KCAD 192255Z AUTO 18006KT 10SM SCT070 27/11 A2995 RMK AO2 T02700119
KCAD 192235Z AUTO 18006KT 10SM SCT070 26/12 A2996 RMK AO2 T02650123
KCAD 192215Z AUTO 18008KT 10SM SCT065 27/11 A2996 RMK AO2 T02710118
KCAD 192155Z AUTO 19007KT 10SM SCT065 27/11 A2997 RMK AO2 T02770117
KCAD 192135Z AUTO 17007KT 10SM BKN065 27/11 A2997 RMK AO2 T02770119
KCAD 192115Z AUTO 21008KT 10SM SCT065 27/11 A2998 RMK AO2 T02750114
KCAD 192055Z AUTO 21009KT 10SM SCT065 27/11 A2998 RMK AO2 T02720119
KCAD 192035Z AUTO 18009KT 160V220 10SM SCT065 27/11 A2998 RMK AO2 T02780115
KCAD 192015Z AUTO 19009G15KT 10SM SCT065 27/11 RMK AO2 T02690114
KCAD 191956Z AUTO 18009KT 10SM SCT065 28/11 A2999 RMK AO2 T02820117
KCAD 191935Z AUTO 21012G15KT 10SM SCT055 27/11 A2999 RMK AO2 T02800112
KCAD 191915Z AUTO 17008G15KT 150V210 10SM SCT055 26/11 A2999 RMK AO2 T02670112
KCAD 191855Z AUTO 18009G14KT 160V220 10SM SCT055 26/11 A3000 RMK AO2 T02650110
KCAD 191835Z AUTO 19008KT 10SM SCT055 26/11 A3001 RMK AO2 T02680117
KCAD 191815Z AUTO 17011G14KT 10SM SCT050 26/11 A3002 RMK AO2 T02620115
KCAD 191755Z AUTO 15007G15KT 10SM CLR 26/12 A3002 RMK AO2 T02590126
KCAD 191735Z AUTO 17009KT 10SM CLR 25/12 A3002 RMK AO2 T02570122
KCAD 191715Z AUTO 23006KT 10SM CLR 25/11 A3003 RMK AO2 T02500115
KCAD 191655Z AUTO 15010KT 10SM CLR 25/11 A3003 RMK AO2 T02510117
KCAD 191635Z AUTO 18006KT 10SM CLR 23/11 A3004 RMK AO2 T02410111
KCAD 191615Z AUTO 20007KT 10SM CLR 23/11 A3004 RMK AO2 T02370110
KCAD 191555Z AUTO 22006KT 10SM CLR 22/10 A3005 RMK AO2 T02300105
KCAD 191535Z AUTO 21005KT 10SM CLR 22/10 A3005 RMK AO2 T02250099
KCAD 191515Z AUTO 20005KT 10SM CLR 22/11 A3005 RMK AO2 T02250111
KCAD 191455Z AUTO 19005KT 10SM CLR 22/10 A3005 RMK AO2 T02250104
KCAD 191435Z AUTO 21006KT 10SM CLR 22/10 A3006 RMK AO2 T02200102
KCAD 191415Z AUTO 20006KT 10SM CLR 21/10 A3006 RMK AO2 T02120107
KCAD 191355Z AUTO 19006KT 10SM CLR 20/10 A3006 RMK AO2 T02060108
KCAD 191336Z AUTO 23005KT 10SM CLR 20/12 A3006 RMK AO2 T02030124
KCAD 191315Z AUTO 22005KT 10SM CLR 18/12 A3007 RMK AO2 T01910124
KCAD 191255Z AUTO 22005KT 10SM CLR 18/13 A3006 RMK AO2 T01800133
KCAD 191236Z AUTO 00000KT 10SM CLR 15/13 A3006 RMK AO2 T01580137
KCAD 191215Z AUTO 00000KT 10SM CLR 13/12 A3007 RMK AO2 T01390122
KCAD 191155Z AUTO 00000KT 10SM CLR 11/10 A3007 RMK AO2 T01180106
KCAD 191136Z AUTO 00000KT 10SM CLR 10/09 A3007 RMK AO2 T01020093
KCAD 191115Z AUTO 00000KT 10SM CLR 07/07 A3008 RMK AO2 T00800073
KCAD 191055Z AUTO 00000KT 10SM CLR 06/05 A3008 RMK AO2 T00640058
KCAD 191036Z AUTO 00000KT 10SM CLR 06/05 A3007 RMK AO2 T00620056
KCAD 191015Z AUTO 00000KT 10SM CLR 06/05 A3007 RMK AO2 T00590052
KCAD 190955Z AUTO 00000KT 10SM CLR 06/05 A3007 RMK AO2 T00610055
KCAD 190936Z AUTO 00000KT 10SM CLR 06/05 A3007 RMK AO2 T00600053
KCAD 190915Z AUTO 00000KT 10SM CLR 06/06 A3007 RMK AO2 T00650059
KCAD 190855Z AUTO 00000KT 10SM CLR 06/06 A3007 RMK AO2 T00670060
KCAD 190835Z AUTO 00000KT 10SM CLR 06/06 A3007 RMK AO2 T00680061
KCAD 190815Z AUTO 00000KT 10SM CLR 07/07 A3007 RMK AO2 T00790072
KCAD 190755Z AUTO 00000KT 10SM CLR 07/07 A3007 RMK AO2 T00800072
KCAD 190735Z AUTO 00000KT 10SM CLR 07/07 A3007 RMK AO2 T00760070
KCAD 190715Z AUTO 00000KT 10SM CLR 08/07 A3007 RMK AO2 T00820076
KCAD 190655Z AUTO 00000KT 10SM CLR 08/07 A3007 RMK AO2 T00800074
KCAD 190635Z AUTO 00000KT 10SM CLR 08/07 A3007 RMK AO2 T00840077
KCAD 190615Z AUTO 00000KT 10SM CLR 08/07 A3007 RMK AO2 T00850079
KCAD 190555Z AUTO 00000KT 10SM CLR 08/08 A3007 RMK AO2 T00910084
KCAD 190535Z AUTO 00000KT 10SM CLR 10/08 A3007 RMK AO2 T00970091
KCAD 190515Z AUTO 00000KT 10SM CLR 09/08 A3007 RMK AO2 T00950089
KCAD 190455Z AUTO 00000KT 10SM CLR 10/10 A3007 RMK AO2 T01050099
KCAD 190435Z AUTO 00000KT 10SM CLR 10/10 A3007 RMK AO2 T01070101
KCAD 190415Z AUTO 00000KT 10SM CLR 10/10 A3008 RMK AO2 T01050097
KCAD 190355Z AUTO 00000KT 10SM CLR 11/11 A3007 RMK AO2 T01180110
KCAD 190335Z AUTO 00000KT 10SM CLR 12/11 A3007 RMK AO2 T01270115
KCAD 190315Z AUTO 00000KT 10SM CLR 13/11 A3008 RMK AO2 T01340118
KCAD 190255Z AUTO 00000KT 10SM CLR 13/11 A3008 RMK AO2 T01400116
KCAD 190235Z AUTO 00000KT 10SM CLR 14/11 A3008 RMK AO2 T01430116
KCAD 190215Z AUTO 00000KT 10SM CLR 15/11 A3007 RMK AO2 T01560115
KCAD 190155Z AUTO 00000KT 10SM CLR 17/11 A3006 RMK AO2 T01720114
KCAD 190135Z AUTO 00000KT 10SM CLR 18/11 A3007 RMK AO2 T01810115
KCAD 190115Z AUTO 29005KT 10SM CLR 18/11 A3007 RMK AO2 T01870111
KCAD 190055Z AUTO 30005KT 10SM CLR 20/11 A3007 RMK AO2 T02010111
KCAD 190035Z AUTO 30007KT 10SM CLR 21/11 A3007 RMK AO2 T02100113
KCAD 190015Z AUTO 30006KT 10SM CLR 21/11 A3007 RMK AO2 T02180113
KCAD 182355Z AUTO 31007KT 10SM CLR 22/11 A3007 RMK AO2 T02240108
KCAD 182335Z AUTO 32007KT 10SM CLR 23/10 A3007 RMK AO2 T02320108
KCAD 182315Z AUTO 30008KT 10SM SCT060 23/10 A3007 RMK AO2 T02350106
KCAD 182255Z AUTO 28009G14KT 220V320 10SM SCT060 25/10 A3006 RMK AO2 T02500106
KCAD 182235Z AUTO 28005KT 10SM SCT060 25/09 A3006 RMK AO2 T02500095
KCAD 182215Z AUTO 27007KT 10SM CLR 25/09 A3007 RMK AO2 T02490096
KCAD 182155Z AUTO 25005KT 10SM CLR 25/09 A3007 RMK AO2 T02500092
KCAD 182135Z AUTO 23006KT 10SM CLR 25/08 A3007 RMK AO2 T02540089
KCAD 182115Z AUTO 23006KT 10SM CLR 25/08 A3008 RMK AO2 T02510090
KCAD 182055Z AUTO 26006KT 10SM CLR 25/08 A3008 RMK AO2 T02490089
KCAD 182035Z AUTO 29005KT 10SM SCT060 25/08 A3008 RMK AO2 T02560082
KCAD 182015Z AUTO 20003KT 10SM OVC060 25/09 A3008 RMK AO2 T02520092
KCAD 181955Z AUTO 13007KT 10SM BKN060 24/08 A3009 RMK AO2 T02450088
KCAD 181935Z AUTO 16005KT 10SM BKN060 24/08 A3010 RMK AO2 T02420088
KCAD 181915Z AUTO 14006KT 10SM SCT060 24/08 A3010 RMK AO2 T02410086
KCAD 181855Z AUTO 00000KT 10SM SCT060 23/07 A3010 RMK AO2 T02320077
KCAD 181835Z AUTO 10004KT 10SM CLR 22/07 A3011 RMK AO2 T02290079
KCAD 181815Z AUTO 06004KT 10SM CLR 23/07 A3011 RMK AO2 T02320080
KCAD 181755Z AUTO 00000KT 10SM CLR 23/08 A3012 RMK AO2 T02320085
KCAD 181735Z AUTO 34005KT 10SM CLR 22/07 A3012 RMK AO2 T02270071
KCAD 181715Z AUTO 04005KT 10SM CLR 22/08 A3012 RMK AO2 T02210090
KCAD 181655Z AUTO 35003KT 10SM CLR 21/08 A3013 RMK AO2 T02180081
KCAD 181635Z AUTO 34007KT 10SM CLR 21/08 A3014 RMK AO2 T02180089
KCAD 181615Z AUTO 02006KT 10SM CLR 21/08 A3014 RMK AO2 T02090086
KCAD 181555Z AUTO 35007KT 10SM CLR 20/07 A3015 RMK AO2 T02070080
KCAD 181535Z AUTO 00000KT 10SM CLR 20/07 A3015 RMK AO2 T02030071